Abenra, Denmark
Current Conditions -  °F | °C
As of 1:50 AM on Wednesday 22 Oct 2014 (Local Time) from EKSP Reporting Station
Broken Clouds Broken Clouds  
Wind Chill: 45°   Ceiling: 15000
Heat Index: 48°   Visibility: 6mi
Dew Point: 46°   Wind: 7mph
Humidity: 93%   Direction: 210°SSW
Pressure: 29.38"   Gusts: NA
Location:  55.04°N, 9.42°E
Report Text: EKSP 212350Z 21006KT 9999 FEW038 BKN150 09/08 Q0995
Loading
Personal Weather Stations






























Interactive Weather Map
Tropical Storm Tracking
New forecast layout! Learn more

10-Day Weather Forecast

Advertisements
Track Severe Weather on mobile